sensor_id;sensor_type;location;lat;lon;timestamp;pressure;altitude;pressure_sealevel;temperature;humidity
64916;BME280;51427;-27.442;153.014;2024-02-23T00:01:10;101203.44;;;33.11;51.72
64916;BME280;51427;-27.442;153.014;2024-02-23T00:03:38;101194.19;;;32.71;52.89
64916;BME280;51427;-27.442;153.014;2024-02-23T00:06:05;101196.59;;;33.15;51.72
64916;BME280;51427;-27.442;153.014;2024-02-23T00:08:33;101192.16;;;32.93;53.08
64916;BME280;51427;-27.442;153.014;2024-02-23T00:11:00;101199.19;;;31.81;52.02
64916;BME280;51427;-27.442;153.014;2024-02-23T00:13:27;101195.34;;;32.49;51.94
64916;BME280;51427;-27.442;153.014;2024-02-23T00:15:55;101190.56;;;32.67;50.32
64916;BME280;51427;-27.442;153.014;2024-02-23T00:18:22;101189.75;;;32.60;52.34
64916;BME280;51427;-27.442;153.014;2024-02-23T00:20:49;101182.03;;;33.45;50.90
64916;BME280;51427;-27.442;153.014;2024-02-23T00:23:16;101175.97;;;33.53;49.81
64916;BME280;51427;-27.442;153.014;2024-02-23T00:25:45;101180.56;;;32.73;53.64
64916;BME280;51427;-27.442;153.014;2024-02-23T00:28:12;101184.91;;;33.10;51.83
64916;BME280;51427;-27.442;153.014;2024-02-23T00:30:40;101176.91;;;32.41;51.26
64916;BME280;51427;-27.442;153.014;2024-02-23T00:33:07;101175.66;;;32.21;51.07
64916;BME280;51427;-27.442;153.014;2024-02-23T00:35:36;101180.06;;;32.22;52.96
64916;BME280;51427;-27.442;153.014;2024-02-23T00:38:03;101173.28;;;33.04;52.30
64916;BME280;51427;-27.442;153.014;2024-02-23T00:40:31;101171.66;;;33.17;51.98
64916;BME280;51427;-27.442;153.014;2024-02-23T00:42:58;101167.66;;;33.11;54.41
64916;BME280;51427;-27.442;153.014;2024-02-23T00:45:27;101162.44;;;32.74;52.58
64916;BME280;51427;-27.442;153.014;2024-02-23T00:47:54;101159.19;;;33.08;50.48
64916;BME280;51427;-27.442;153.014;2024-02-23T00:50:23;101151.13;;;33.24;51.86
64916;BME280;51427;-27.442;153.014;2024-02-23T00:52:53;101146.34;;;32.96;51.48
64916;BME280;51427;-27.442;153.014;2024-02-23T00:55:20;101136.59;;;33.43;53.40
64916;BME280;51427;-27.442;153.014;2024-02-23T00:57:47;101133.50;;;32.91;53.26
64916;BME280;51427;-27.442;153.014;2024-02-23T01:00:15;101126.47;;;33.56;53.74
64916;BME280;51427;-27.442;153.014;2024-02-23T01:02:42;101130.09;;;33.60;51.99
64916;BME280;51427;-27.442;153.014;2024-02-23T01:05:09;101120.75;;;33.77;52.45
64916;BME280;51427;-27.442;153.014;2024-02-23T01:07:37;101117.81;;;33.98;51.75
64916;BME280;51427;-27.442;153.014;2024-02-23T01:10:04;101108.78;;;33.63;51.94
64916;BME280;51427;-27.442;153.014;2024-02-23T01:12:32;101110.25;;;33.85;51.39
64916;BME280;51427;-27.442;153.014;2024-02-23T01:14:59;101105.03;;;33.87;50.91
64916;BME280;51427;-27.442;153.014;2024-02-23T01:17:26;101098.97;;;32.87;52.49
64916;BME280;51427;-27.442;153.014;2024-02-23T01:19:54;101091.38;;;33.82;51.32
64916;BME280;51427;-27.442;153.014;2024-02-23T01:22:21;101088.44;;;34.47;51.20
64916;BME280;51427;-27.442;153.014;2024-02-23T01:24:48;101081.16;;;33.29;54.09
64916;BME280;51427;-27.442;153.014;2024-02-23T01:27:16;101071.03;;;33.46;52.63
64916;BME280;51427;-27.442;153.014;2024-02-23T01:29:44;101073.22;;;33.90;50.60
64916;BME280;51427;-27.442;153.014;2024-02-23T01:32:12;101068.59;;;34.17;49.89
64916;BME280;51427;-27.442;153.014;2024-02-23T01:34:39;101068.47;;;34.76;49.94
64916;BME280;51427;-27.442;153.014;2024-02-23T01:37:06;101055.59;;;34.30;47.51
64916;BME280;51427;-27.442;153.014;2024-02-23T01:39:34;101064.13;;;33.65;48.40
64916;BME280;51427;-27.442;153.014;2024-02-23T01:42:01;101052.53;;;34.11;48.02
64916;BME280;51427;-27.442;153.014;2024-02-23T01:44:28;101048.75;;;34.31;51.28
64916;BME280;51427;-27.442;153.014;2024-02-23T01:46:56;101043.03;;;34.79;49.95
64916;BME280;51427;-27.442;153.014;2024-02-23T01:49:23;101043.66;;;34.57;49.59
64916;BME280;51427;-27.442;153.014;2024-02-23T01:51:57;101027.31;;;33.24;51.60
64916;BME280;51427;-27.442;153.014;2024-02-23T01:54:25;101030.59;;;33.12;52.43
64916;BME280;51427;-27.442;153.014;2024-02-23T01:56:52;101023.66;;;33.27;50.88
64916;BME280;51427;-27.442;153.014;2024-02-23T01:59:19;101007.25;;;33.80;51.10
64916;BME280;51427;-27.442;153.014;2024-02-23T02:01:47;101010.97;;;34.25;50.82
64916;BME280;51427;-27.442;153.014;2024-02-23T02:04:14;101011.97;;;33.97;51.75
64916;BME280;51427;-27.442;153.014;2024-02-23T02:06:42;101004.06;;;33.78;52.62
64916;BME280;51427;-27.442;153.014;2024-02-23T02:09:10;100992.22;;;34.83;49.80
64916;BME280;51427;-27.442;153.014;2024-02-23T02:11:46;100995.38;;;34.88;47.93
64916;BME280;51427;-27.442;153.014;2024-02-23T02:14:14;100986.53;;;35.20;44.86
64916;BME280;51427;-27.442;153.014;2024-02-23T02:16:41;100971.31;;;34.43;46.01
64916;BME280;51427;-27.442;153.014;2024-02-23T02:19:10;100969.50;;;34.60;47.79
64916;BME280;51427;-27.442;153.014;2024-02-23T02:21:38;100971.59;;;35.20;45.90
64916;BME280;51427;-27.442;153.014;2024-02-23T02:24:06;100969.44;;;34.67;45.75
64916;BME280;51427;-27.442;153.014;2024-02-23T02:26:36;100964.75;;;34.87;46.52
64916;BME280;51427;-27.442;153.014;2024-02-23T02:29:04;100960.19;;;34.66;48.26
64916;BME280;51427;-27.442;153.014;2024-02-23T02:31:31;100958.47;;;34.72;49.31
64916;BME280;51427;-27.442;153.014;2024-02-23T02:34:04;100948.19;;;34.21;48.35
64916;BME280;51427;-27.442;153.014;2024-02-23T02:36:31;100946.88;;;34.29;49.43
64916;BME280;51427;-27.442;153.014;2024-02-23T02:38:58;100940.81;;;34.31;50.99
64916;BME280;51427;-27.442;153.014;2024-02-23T02:41:29;100931.59;;;34.64;47.28
64916;BME280;51427;-27.442;153.014;2024-02-23T02:43:57;100925.13;;;34.30;50.11
64916;BME280;51427;-27.442;153.014;2024-02-23T02:46:24;100924.94;;;34.81;51.55
64916;BME280;51427;-27.442;153.014;2024-02-23T02:48:51;100916.19;;;33.97;49.65
64916;BME280;51427;-27.442;153.014;2024-02-23T02:51:18;100912.97;;;35.01;48.16
64916;BME280;51427;-27.442;153.014;2024-02-23T02:53:46;100905.47;;;35.44;46.50
64916;BME280;51427;-27.442;153.014;2024-02-23T02:56:13;100901.16;;;35.09;45.00
64916;BME280;51427;-27.442;153.014;2024-02-23T02:58:40;100891.69;;;35.23;48.49
64916;BME280;51427;-27.442;153.014;2024-02-23T03:01:08;100888.09;;;35.72;47.44
64916;BME280;51427;-27.442;153.014;2024-02-23T03:03:35;100889.66;;;35.97;45.50
64916;BME280;51427;-27.442;153.014;2024-02-23T03:06:02;100883.66;;;35.94;46.11
64916;BME280;51427;-27.442;153.014;2024-02-23T03:08:32;100877.56;;;36.59;43.55
64916;BME280;51427;-27.442;153.014;2024-02-23T03:11:00;100882.44;;;35.72;43.92
64916;BME280;51427;-27.442;153.014;2024-02-23T03:13:27;100871.16;;;36.15;40.07
64916;BME280;51427;-27.442;153.014;2024-02-23T03:15:54;100875.00;;;34.78;44.99
64916;BME280;51427;-27.442;153.014;2024-02-23T03:18:21;100864.69;;;34.95;47.08
64916;BME280;51427;-27.442;153.014;2024-02-23T03:20:49;100855.72;;;34.73;48.74
64916;BME280;51427;-27.442;153.014;2024-02-23T03:23:16;100845.09;;;34.54;48.77
64916;BME280;51427;-27.442;153.014;2024-02-23T03:25:43;100839.81;;;34.26;49.30
64916;BME280;51427;-27.442;153.014;2024-02-23T03:28:11;100838.34;;;34.11;50.77
64916;BME280;51427;-27.442;153.014;2024-02-23T03:30:38;100838.19;;;33.87;50.77
64916;BME280;51427;-27.442;153.014;2024-02-23T03:33:05;100845.53;;;33.33;49.25
64916;BME280;51427;-27.442;153.014;2024-02-23T03:35:32;100835.13;;;34.09;48.85
64916;BME280;51427;-27.442;153.014;2024-02-23T03:38:00;100827.31;;;33.45;51.90
64916;BME280;51427;-27.442;153.014;2024-02-23T03:40:27;100829.81;;;33.80;52.30
64916;BME280;51427;-27.442;153.014;2024-02-23T03:42:54;100824.44;;;34.61;50.38
64916;BME280;51427;-27.442;153.014;2024-02-23T03:45:21;100818.31;;;34.69;49.83
64916;BME280;51427;-27.442;153.014;2024-02-23T03:47:49;100803.56;;;34.85;49.45
64916;BME280;51427;-27.442;153.014;2024-02-23T03:50:16;100810.97;;;34.15;51.04
64916;BME280;51427;-27.442;153.014;2024-02-23T03:52:44;100799.06;;;34.61;48.87
64916;BME280;51427;-27.442;153.014;2024-02-23T03:55:11;100800.69;;;34.58;51.50
64916;BME280;51427;-27.442;153.014;2024-02-23T03:57:38;100813.97;;;33.52;52.22
64916;BME280;51427;-27.442;153.014;2024-02-23T04:00:06;100798.56;;;34.05;51.98
64916;BME280;51427;-27.442;153.014;2024-02-23T04:02:34;100799.41;;;34.02;51.40
64916;BME280;51427;-27.442;153.014;2024-02-23T04:05:02;100777.91;;;34.19;52.57
64916;BME280;51427;-27.442;153.014;2024-02-23T04:07:29;100783.22;;;34.43;52.21
64916;BME280;51427;-27.442;153.014;2024-02-23T04:09:56;100765.97;;;34.04;50.76
64916;BME280;51427;-27.442;153.014;2024-02-23T04:12:24;100783.53;;;33.81;53.08
64916;BME280;51427;-27.442;153.014;2024-02-23T04:14:51;100777.31;;;33.60;53.58
64916;BME280;51427;-27.442;153.014;2024-02-23T04:17:18;100772.59;;;33.90;52.50
64916;BME280;51427;-27.442;153.014;2024-02-23T04:19:46;100774.34;;;34.41;53.02
64916;BME280;51427;-27.442;153.014;2024-02-23T04:22:13;100763.88;;;34.42;51.60
64916;BME280;51427;-27.442;153.014;2024-02-23T04:24:41;100771.03;;;33.45;52.37
64916;BME280;51427;-27.442;153.014;2024-02-23T04:27:08;100763.25;;;33.97;52.51
64916;BME280;51427;-27.442;153.014;2024-02-23T04:29:36;100759.84;;;34.13;53.33
64916;BME280;51427;-27.442;153.014;2024-02-23T04:32:03;100760.81;;;33.65;51.66
64916;BME280;51427;-27.442;153.014;2024-02-23T04:34:31;100754.09;;;33.89;52.34
64916;BME280;51427;-27.442;153.014;2024-02-23T04:36:58;100756.53;;;33.84;53.56
64916;BME280;51427;-27.442;153.014;2024-02-23T04:39:26;100737.13;;;33.93;51.80
64916;BME280;51427;-27.442;153.014;2024-02-23T04:41:53;100737.22;;;33.86;51.43
64916;BME280;51427;-27.442;153.014;2024-02-23T04:44:21;100737.28;;;34.43;52.61
64916;BME280;51427;-27.442;153.014;2024-02-23T04:46:48;100729.09;;;34.25;52.59
64916;BME280;51427;-27.442;153.014;2024-02-23T04:49:15;100735.56;;;33.55;52.52
64916;BME280;51427;-27.442;153.014;2024-02-23T04:51:42;100724.63;;;33.97;51.96
64916;BME280;51427;-27.442;153.014;2024-02-23T04:54:10;100726.22;;;33.65;52.74
64916;BME280;51427;-27.442;153.014;2024-02-23T04:56:37;100726.19;;;33.24;53.35
64916;BME280;51427;-27.442;153.014;2024-02-23T04:59:05;100714.34;;;33.80;52.18
64916;BME280;51427;-27.442;153.014;2024-02-23T05:01:36;100722.03;;;33.39;53.29
64916;BME280;51427;-27.442;153.014;2024-02-23T05:04:04;100713.84;;;33.51;53.55
64916;BME280;51427;-27.442;153.014;2024-02-23T05:06:31;100716.44;;;33.76;54.25
64916;BME280;51427;-27.442;153.014;2024-02-23T05:08:58;100714.38;;;33.39;53.19
64916;BME280;51427;-27.442;153.014;2024-02-23T05:11:26;100702.44;;;33.69;54.62
64916;BME280;51427;-27.442;153.014;2024-02-23T05:13:53;100713.56;;;33.80;51.79
64916;BME280;51427;-27.442;153.014;2024-02-23T05:16:20;100705.72;;;33.94;52.62
64916;BME280;51427;-27.442;153.014;2024-02-23T05:18:47;100706.03;;;33.32;53.13
64916;BME280;51427;-27.442;153.014;2024-02-23T05:21:15;100705.41;;;33.14;53.04
64916;BME280;51427;-27.442;153.014;2024-02-23T05:23:42;100710.69;;;33.05;54.39
64916;BME280;51427;-27.442;153.014;2024-02-23T05:26:10;100701.84;;;32.59;54.51
64916;BME280;51427;-27.442;153.014;2024-02-23T05:28:37;100700.84;;;32.79;54.51
64916;BME280;51427;-27.442;153.014;2024-02-23T05:31:04;100689.38;;;32.52;56.40
64916;BME280;51427;-27.442;153.014;2024-02-23T05:33:32;100692.97;;;32.60;55.98
64916;BME280;51427;-27.442;153.014;2024-02-23T05:35:59;100697.69;;;33.22;54.37
64916;BME280;51427;-27.442;153.014;2024-02-23T05:38:27;100695.13;;;32.93;54.50
64916;BME280;51427;-27.442;153.014;2024-02-23T05:40:54;100693.81;;;33.05;54.13
64916;BME280;51427;-27.442;153.014;2024-02-23T05:43:21;100692.97;;;33.08;53.83
64916;BME280;51427;-27.442;153.014;2024-02-23T05:45:48;100688.41;;;33.25;54.65
64916;BME280;51427;-27.442;153.014;2024-02-23T05:48:16;100696.63;;;33.46;54.63
64916;BME280;51427;-27.442;153.014;2024-02-23T05:50:45;100683.50;;;32.88;54.86
64916;BME280;51427;-27.442;153.014;2024-02-23T05:53:12;100699.75;;;32.70;55.51
64916;BME280;51427;-27.442;153.014;2024-02-23T05:55:39;100702.81;;;32.86;55.61
64916;BME280;51427;-27.442;153.014;2024-02-23T05:58:07;100708.53;;;32.75;55.95
64916;BME280;51427;-27.442;153.014;2024-02-23T06:00:35;100694.22;;;32.52;56.38
64916;BME280;51427;-27.442;153.014;2024-02-23T06:03:02;100707.28;;;32.80;55.95
64916;BME280;51427;-27.442;153.014;2024-02-23T06:05:30;100702.59;;;32.63;56.19
64916;BME280;51427;-27.442;153.014;2024-02-23T06:07:57;100708.53;;;32.75;56.48
64916;BME280;51427;-27.442;153.014;2024-02-23T06:10:24;100703.31;;;32.70;56.16
64916;BME280;51427;-27.442;153.014;2024-02-23T06:12:52;100710.72;;;32.43;56.84
64916;BME280;51427;-27.442;153.014;2024-02-23T06:15:20;100708.06;;;32.18;58.38
64916;BME280;51427;-27.442;153.014;2024-02-23T06:17:47;100708.56;;;32.68;57.91
64916;BME280;51427;-27.442;153.014;2024-02-23T06:20:14;100720.28;;;32.60;57.65
64916;BME280;51427;-27.442;153.014;2024-02-23T06:22:42;100718.16;;;32.74;56.93
64916;BME280;51427;-27.442;153.014;2024-02-23T06:25:09;100722.50;;;32.27;57.67
64916;BME280;51427;-27.442;153.014;2024-02-23T06:27:38;100725.06;;;31.79;57.84
64916;BME280;51427;-27.442;153.014;2024-02-23T06:30:11;100728.34;;;31.49;57.63
64916;BME280;51427;-27.442;153.014;2024-02-23T06:32:39;100725.56;;;31.49;57.77
64916;BME280;51427;-27.442;153.014;2024-02-23T06:35:06;100727.97;;;31.26;58.05
64916;BME280;51427;-27.442;153.014;2024-02-23T06:37:33;100731.19;;;31.28;59.54
64916;BME280;51427;-27.442;153.014;2024-02-23T06:40:03;100724.75;;;31.56;59.05
64916;BME280;51427;-27.442;153.014;2024-02-23T06:42:31;100727.56;;;31.45;58.28
64916;BME280;51427;-27.442;153.014;2024-02-23T06:45:18;100721.56;;;31.29;58.07
64916;BME280;51427;-27.442;153.014;2024-02-23T06:47:45;100729.97;;;31.36;58.18
64916;BME280;51427;-27.442;153.014;2024-02-23T06:50:13;100736.81;;;31.21;58.29
64916;BME280;51427;-27.442;153.014;2024-02-23T06:52:40;100734.78;;;31.25;59.06
64916;BME280;51427;-27.442;153.014;2024-02-23T06:55:10;100736.81;;;31.35;59.44
64916;BME280;51427;-27.442;153.014;2024-02-23T06:57:37;100745.22;;;31.25;59.53
64916;BME280;51427;-27.442;153.014;2024-02-23T07:00:05;100749.59;;;30.83;60.13
64916;BME280;51427;-27.442;153.014;2024-02-23T07:02:34;100750.00;;;30.64;60.81
64916;BME280;51427;-27.442;153.014;2024-02-23T07:05:03;100754.81;;;30.74;61.26
64916;BME280;51427;-27.442;153.014;2024-02-23T07:07:34;100757.66;;;30.99;60.44
64916;BME280;51427;-27.442;153.014;2024-02-23T07:10:01;100762.06;;;31.11;60.35
64916;BME280;51427;-27.442;153.014;2024-02-23T07:12:29;100759.63;;;30.81;61.18
64916;BME280;51427;-27.442;153.014;2024-02-23T07:14:56;100760.78;;;30.66;61.70
64916;BME280;51427;-27.442;153.014;2024-02-23T07:17:24;100766.78;;;30.60;62.30
64916;BME280;51427;-27.442;153.014;2024-02-23T07:19:51;100765.53;;;30.47;62.54
64916;BME280;51427;-27.442;153.014;2024-02-23T07:22:19;100770.34;;;30.43;63.09
64916;BME280;51427;-27.442;153.014;2024-02-23T07:24:50;100771.91;;;30.41;63.13
64916;BME280;51427;-27.442;153.014;2024-02-23T07:27:17;100768.66;;;30.25;64.36
64916;BME280;51427;-27.442;153.014;2024-02-23T07:29:44;100770.66;;;30.24;65.02
64916;BME280;51427;-27.442;153.014;2024-02-23T07:32:12;100782.69;;;30.32;65.13
64916;BME280;51427;-27.442;153.014;2024-02-23T07:34:39;100782.72;;;30.35;64.91
64916;BME280;51427;-27.442;153.014;2024-02-23T07:37:06;100773.81;;;30.19;65.35
64916;BME280;51427;-27.442;153.014;2024-02-23T07:39:33;100777.47;;;30.27;65.80
64916;BME280;51427;-27.442;153.014;2024-02-23T07:42:01;100781.03;;;30.20;66.04
64916;BME280;51427;-27.442;153.014;2024-02-23T07:44:32;100787.84;;;30.23;66.26
64916;BME280;51427;-27.442;153.014;2024-02-23T07:47:00;100785.44;;;30.14;66.46
64916;BME280;51427;-27.442;153.014;2024-02-23T07:49:27;100793.41;;;30.16;66.69
64916;BME280;51427;-27.442;153.014;2024-02-23T07:51:54;100796.25;;;30.26;66.54
64916;BME280;51427;-27.442;153.014;2024-02-23T07:54:22;100803.75;;;30.04;67.67
64916;BME280;51427;-27.442;153.014;2024-02-23T07:56:49;100806.41;;;29.80;68.10
64916;BME280;51427;-27.442;153.014;2024-02-23T07:59:30;100802.53;;;29.95;67.34
64916;BME280;51427;-27.442;153.014;2024-02-23T08:01:57;100813.66;;;29.84;67.98
64916;BME280;51427;-27.442;153.014;2024-02-23T08:04:25;100818.31;;;29.66;67.64
64916;BME280;51427;-27.442;153.014;2024-02-23T08:06:52;100822.41;;;29.79;67.81
64916;BME280;51427;-27.442;153.014;2024-02-23T08:09:19;100835.63;;;29.82;66.53
64916;BME280;51427;-27.442;153.014;2024-02-23T08:11:51;100839.56;;;29.74;65.06
64916;BME280;51427;-27.442;153.014;2024-02-23T08:14:22;100839.19;;;29.76;66.02
64916;BME280;51427;-27.442;153.014;2024-02-23T08:16:49;100833.59;;;29.79;65.07
64916;BME280;51427;-27.442;153.014;2024-02-23T08:19:16;100826.94;;;29.43;66.02
64916;BME280;51427;-27.442;153.014;2024-02-23T08:21:44;100832.53;;;29.40;65.36
64916;BME280;51427;-27.442;153.014;2024-02-23T08:24:11;100837.63;;;29.31;65.67
64916;BME280;51427;-27.442;153.014;2024-02-23T08:26:38;100833.25;;;29.30;66.02
64916;BME280;51427;-27.442;153.014;2024-02-23T08:29:07;100827.31;;;29.38;66.05
64916;BME280;51427;-27.442;153.014;2024-02-23T08:31:35;100832.84;;;29.31;67.02
64916;BME280;51427;-27.442;153.014;2024-02-23T08:34:02;100824.03;;;29.29;66.20
64916;BME280;51427;-27.442;153.014;2024-02-23T08:36:29;100830.44;;;29.30;66.70
64916;BME280;51427;-27.442;153.014;2024-02-23T08:38:57;100842.00;;;29.28;67.10
64916;BME280;51427;-27.442;153.014;2024-02-23T08:41:24;100848.00;;;29.30;66.93
64916;BME280;51427;-27.442;153.014;2024-02-23T08:43:51;100853.22;;;29.32;67.16
64916;BME280;51427;-27.442;153.014;2024-02-23T08:46:19;100853.19;;;29.28;67.08
64916;BME280;51427;-27.442;153.014;2024-02-23T08:48:47;100847.22;;;29.30;67.03
64916;BME280;51427;-27.442;153.014;2024-02-23T08:51:14;100850.31;;;29.21;67.38
64916;BME280;51427;-27.442;153.014;2024-02-23T08:53:41;100852.25;;;29.17;67.55
64916;BME280;51427;-27.442;153.014;2024-02-23T08:56:09;100848.63;;;29.13;67.21
64916;BME280;51427;-27.442;153.014;2024-02-23T08:58:38;100844.06;;;28.94;67.26
64916;BME280;51427;-27.442;153.014;2024-02-23T09:01:05;100850.78;;;28.90;67.33
64916;BME280;51427;-27.442;153.014;2024-02-23T09:03:33;100852.78;;;28.89;67.56
64916;BME280;51427;-27.442;153.014;2024-02-23T09:06:00;100857.41;;;29.11;67.07
64916;BME280;51427;-27.442;153.014;2024-02-23T09:08:27;100862.41;;;28.95;68.13
64916;BME280;51427;-27.442;153.014;2024-02-23T09:10:54;100875.03;;;28.79;68.08
64916;BME280;51427;-27.442;153.014;2024-02-23T09:13:22;100876.13;;;28.71;68.49
64916;BME280;51427;-27.442;153.014;2024-02-23T09:15:49;100878.25;;;28.84;67.99
64916;BME280;51427;-27.442;153.014;2024-02-23T09:18:16;100879.72;;;28.71;68.59
64916;BME280;51427;-27.442;153.014;2024-02-23T09:20:44;100878.94;;;28.74;67.74
64916;BME280;51427;-27.442;153.014;2024-02-23T09:23:12;100880.13;;;28.70;68.00
64916;BME280;51427;-27.442;153.014;2024-02-23T09:25:40;100878.03;;;28.66;68.16
64916;BME280;51427;-27.442;153.014;2024-02-23T09:28:08;100876.06;;;28.67;68.07
64916;BME280;51427;-27.442;153.014;2024-02-23T09:30:37;100876.41;;;28.62;67.61
64916;BME280;51427;-27.442;153.014;2024-02-23T09:33:05;100887.78;;;28.76;67.36
64916;BME280;51427;-27.442;153.014;2024-02-23T09:35:32;100880.94;;;28.74;66.96
64916;BME280;51427;-27.442;153.014;2024-02-23T09:37:59;100891.50;;;28.57;68.04
64916;BME280;51427;-27.442;153.014;2024-02-23T09:40:27;100901.81;;;28.53;67.75
64916;BME280;51427;-27.442;153.014;2024-02-23T09:42:58;100894.47;;;28.42;68.15
64916;BME280;51427;-27.442;153.014;2024-02-23T09:45:27;100894.66;;;28.56;67.31
64916;BME280;51427;-27.442;153.014;2024-02-23T09:47:57;100900.06;;;28.42;68.30
64916;BME280;51427;-27.442;153.014;2024-02-23T09:50:25;100906.31;;;28.61;67.21
64916;BME280;51427;-27.442;153.014;2024-02-23T09:52:57;100904.91;;;28.45;68.46
64916;BME280;51427;-27.442;153.014;2024-02-23T09:55:25;100905.78;;;28.52;68.36
64916;BME280;51427;-27.442;153.014;2024-02-23T09:57:59;100906.22;;;28.25;70.37
64916;BME280;51427;-27.442;153.014;2024-02-23T10:00:27;100910.63;;;28.26;68.92
64916;BME280;51427;-27.442;153.014;2024-02-23T10:02:55;100909.25;;;28.69;67.19
64916;BME280;51427;-27.442;153.014;2024-02-23T10:05:30;100915.09;;;28.30;68.60
64916;BME280;51427;-27.442;153.014;2024-02-23T10:07:58;100916.56;;;28.50;67.77
64916;BME280;51427;-27.442;153.014;2024-02-23T10:10:34;100925.97;;;28.39;68.63
64916;BME280;51427;-27.442;153.014;2024-02-23T10:13:02;100919.00;;;28.26;68.53
64916;BME280;51427;-27.442;153.014;2024-02-23T10:15:32;100922.16;;;28.24;68.55
64916;BME280;51427;-27.442;153.014;2024-02-23T10:18:00;100917.34;;;28.21;68.95
64916;BME280;51427;-27.442;153.014;2024-02-23T10:20:27;100930.94;;;28.23;68.85
64916;BME280;51427;-27.442;153.014;2024-02-23T10:22:54;100918.91;;;28.18;69.26
64916;BME280;51427;-27.442;153.014;2024-02-23T10:25:22;100922.16;;;28.24;69.26
64916;BME280;51427;-27.442;153.014;2024-02-23T10:27:49;100926.84;;;28.16;68.85
64916;BME280;51427;-27.442;153.014;2024-02-23T10:30:17;100928.56;;;28.25;69.02
64916;BME280;51427;-27.442;153.014;2024-02-23T10:32:45;100931.78;;;28.27;68.76
64916;BME280;51427;-27.442;153.014;2024-02-23T10:35:17;100944.03;;;28.18;68.85
64916;BME280;51427;-27.442;153.014;2024-02-23T10:37:46;100943.44;;;28.32;67.97
64916;BME280;51427;-27.442;153.014;2024-02-23T10:40:20;100945.31;;;28.25;68.63
64916;BME280;51427;-27.442;153.014;2024-02-23T10:42:50;100947.63;;;28.19;68.83
64916;BME280;51427;-27.442;153.014;2024-02-23T10:45:21;100940.94;;;28.27;68.80
64916;BME280;51427;-27.442;153.014;2024-02-23T10:47:48;100946.31;;;28.13;69.56
64916;BME280;51427;-27.442;153.014;2024-02-23T10:50:17;100948.50;;;28.00;70.02
64916;BME280;51427;-27.442;153.014;2024-02-23T10:52:46;100951.84;;;28.36;69.13
64916;BME280;51427;-27.442;153.014;2024-02-23T10:55:15;100955.41;;;28.33;67.75
64916;BME280;51427;-27.442;153.014;2024-02-23T10:57:43;100957.06;;;28.11;69.79
64916;BME280;51427;-27.442;153.014;2024-02-23T11:00:11;100954.84;;;27.97;70.39
64916;BME280;51427;-27.442;153.014;2024-02-23T11:02:50;100956.75;;;27.93;70.08
64916;BME280;51427;-27.442;153.014;2024-02-23T11:05:19;100955.25;;;27.99;70.20
64916;BME280;51427;-27.442;153.014;2024-02-23T11:07:49;100959.31;;;28.02;69.80
64916;BME280;51427;-27.442;153.014;2024-02-23T11:10:18;100950.94;;;28.02;69.91
64916;BME280;51427;-27.442;153.014;2024-02-23T11:12:58;100951.13;;;27.90;70.34
64916;BME280;51427;-27.442;153.014;2024-02-23T11:15:30;100949.38;;;27.82;69.81
64916;BME280;51427;-27.442;153.014;2024-02-23T11:18:00;100950.69;;;27.88;70.12
64916;BME280;51427;-27.442;153.014;2024-02-23T11:20:35;100953.66;;;27.98;69.66
64916;BME280;51427;-27.442;153.014;2024-02-23T11:23:13;100957.94;;;27.92;70.00
64916;BME280;51427;-27.442;153.014;2024-02-23T11:25:41;100957.50;;;27.90;69.41
64916;BME280;51427;-27.442;153.014;2024-02-23T11:28:09;100962.16;;;27.83;69.90
64916;BME280;51427;-27.442;153.014;2024-02-23T11:30:36;100957.41;;;27.83;70.36
64916;BME280;51427;-27.442;153.014;2024-02-23T11:33:03;100957.81;;;27.85;70.30
64916;BME280;51427;-27.442;153.014;2024-02-23T11:35:35;100952.34;;;27.92;69.61
64916;BME280;51427;-27.442;153.014;2024-02-23T11:38:04;100951.13;;;27.90;69.60
64916;BME280;51427;-27.442;153.014;2024-02-23T11:40:33;100957.94;;;27.92;69.41
64916;BME280;51427;-27.442;153.014;2024-02-23T11:43:00;100959.38;;;27.83;69.75
64916;BME280;51427;-27.442;153.014;2024-02-23T11:45:31;100956.88;;;27.78;70.40
64916;BME280;51427;-27.442;153.014;2024-02-23T11:47:58;100960.06;;;27.76;69.92
64916;BME280;51427;-27.442;153.014;2024-02-23T11:50:26;100966.81;;;27.75;70.89
64916;BME280;51427;-27.442;153.014;2024-02-23T11:52:54;100956.53;;;27.79;70.08
64916;BME280;51427;-27.442;153.014;2024-02-23T11:55:21;100958.66;;;27.63;70.92
64916;BME280;51427;-27.442;153.014;2024-02-23T11:57:49;100956.00;;;27.70;70.42
64916;BME280;51427;-27.442;153.014;2024-02-23T12:00:17;100955.34;;;27.80;70.76
64916;BME280;51427;-27.442;153.014;2024-02-23T12:02:45;100944.84;;;27.70;70.73
64916;BME280;51427;-27.442;153.014;2024-02-23T12:05:15;100949.66;;;27.73;70.72
64916;BME280;51427;-27.442;153.014;2024-02-23T12:10:10;100944.78;;;27.66;71.38
64916;BME280;51427;-27.442;153.014;2024-02-23T12:12:37;100939.06;;;27.59;71.55
64916;BME280;51427;-27.442;153.014;2024-02-23T12:15:06;100945.38;;;27.56;71.88
64916;BME280;51427;-27.442;153.014;2024-02-23T12:17:37;100943.38;;;27.57;72.27
64916;BME280;51427;-27.442;153.014;2024-02-23T12:20:13;100938.75;;;27.64;71.98
64916;BME280;51427;-27.442;153.014;2024-02-23T12:22:43;100936.22;;;27.56;72.37
64916;BME280;51427;-27.442;153.014;2024-02-23T12:25:12;100945.56;;;27.67;72.41
64916;BME280;51427;-27.442;153.014;2024-02-23T12:27:40;100943.84;;;27.40;73.39